MSR968 HECA-VABB
Flight info
| Callsign | MSR968 |
|---|---|
| Flight time | N/A |
| Altitude | 39000 |
| Route | CVO L315 HGD M872 WEJ DCT PMA DCT BDB DCT TUKVU DCT ALRIK DCT GISKA DCT REXOD DCT BOLIS DCT BISET KETOR2A |
| Aircraft | A332/H-SDE3GHIJ2J3J5M1RVWXY/LB2D1 |
Departure
| Time | 2026-05-04 12:11 |
|---|---|
| Airport | Cairo International Airport (HECA) |
Arrival
| Time | N/A |
|---|---|
| Airport | Chhatrapati Shivaji Maharaj International Airport (VABB) |
| Time | Latitude | Longitude | Altitude | Speed | Heading |
|---|---|---|---|---|---|
| 2026-05-04 11:34 | 30.10791 | 31.39882 | 343 ft | 0 kts | 75° |
| 2026-05-04 11:56 | 30.10791 | 31.39883 | 408 ft | 0 kts | 75° |
| 2026-05-04 11:56 | 30.10788 | 31.39870 | 380 ft | 3 kts | 75° |
| 2026-05-04 11:56 | 30.10783 | 31.39848 | 380 ft | 3 kts | 77° |
| 2026-05-04 11:57 | 30.10779 | 31.39824 | 380 ft | 3 kts | 86° |
| 2026-05-04 11:57 | 30.10778 | 31.39799 | 380 ft | 3 kts | 127° |
| 2026-05-04 11:57 | 30.10786 | 31.39786 | 380 ft | 2 kts | 153° |
| 2026-05-04 11:57 | 30.10796 | 31.39780 | 380 ft | 2 kts | 160° |
| 2026-05-04 11:58 | 30.10800 | 31.39779 | 381 ft | 0 kts | 161° |
| 2026-05-04 12:00 | 30.10779 | 31.39786 | 380 ft | 6 kts | 163° |
| 2026-05-04 12:00 | 30.10724 | 31.39802 | 380 ft | 9 kts | 166° |
| 2026-05-04 12:00 | 30.10654 | 31.39822 | 380 ft | 11 kts | 166° |
| 2026-05-04 12:01 | 30.10572 | 31.39845 | 380 ft | 13 kts | 166° |
| 2026-05-04 12:01 | 30.10504 | 31.39898 | 380 ft | 11 kts | 117° |
| 2026-05-04 12:02 | 30.10735 | 31.40449 | 380 ft | 15 kts | 52° |
| 2026-05-04 12:03 | 30.10805 | 31.40540 | 380 ft | 16 kts | 48° |
| 2026-05-04 12:03 | 30.10876 | 31.40638 | 380 ft | 13 kts | 49° |
| 2026-05-04 12:03 | 30.10937 | 31.40718 | 380 ft | 14 kts | 48° |
| 2026-05-04 12:03 | 30.11005 | 31.40806 | 380 ft | 15 kts | 48° |
| 2026-05-04 12:04 | 30.11078 | 31.40902 | 380 ft | 16 kts | 49° |
| 2026-05-04 12:04 | 30.11155 | 31.41005 | 380 ft | 18 kts | 49° |
| 2026-05-04 12:04 | 30.11238 | 31.41115 | 380 ft | 19 kts | 49° |
| 2026-05-04 12:04 | 30.11324 | 31.41231 | 380 ft | 19 kts | 49° |
| 2026-05-04 12:05 | 30.11415 | 31.41352 | 380 ft | 20 kts | 49° |
| 2026-05-04 12:05 | 30.11510 | 31.41477 | 380 ft | 21 kts | 48° |
| 2026-05-04 12:05 | 30.11608 | 31.41607 | 380 ft | 22 kts | 51° |
| 2026-05-04 12:05 | 30.11707 | 31.41742 | 380 ft | 22 kts | 49° |
| 2026-05-04 12:06 | 30.11804 | 31.41871 | 380 ft | 19 kts | 50° |
| 2026-05-04 12:06 | 30.11892 | 31.41989 | 380 ft | 20 kts | 50° |
| 2026-05-04 12:06 | 30.11983 | 31.42113 | 380 ft | 21 kts | 49° |
| 2026-05-04 12:06 | 30.12079 | 31.42240 | 380 ft | 21 kts | 49° |
| 2026-05-04 12:07 | 30.12177 | 31.42372 | 380 ft | 22 kts | 50° |
| 2026-05-04 12:07 | 30.12268 | 31.42496 | 380 ft | 20 kts | 50° |
| 2026-05-04 12:07 | 30.12361 | 31.42617 | 380 ft | 20 kts | 48° |
| 2026-05-04 12:07 | 30.12453 | 31.42743 | 380 ft | 21 kts | 57° |
| 2026-05-04 12:08 | 30.12450 | 31.42890 | 380 ft | 9 kts | 124° |
| 2026-05-04 12:08 | 30.12448 | 31.42892 | 380 ft | 0 kts | 126° |
| 2026-05-04 12:09 | 30.12439 | 31.42904 | 380 ft | 5 kts | 131° |
| 2026-05-04 12:09 | 30.12388 | 31.42929 | 380 ft | 11 kts | 169° |
| 2026-05-04 12:09 | 30.12295 | 31.42910 | 380 ft | 15 kts | 209° |
| 2026-05-04 12:10 | 30.12229 | 31.42831 | 380 ft | 46 kts | 230° |
| 2026-05-04 12:10 | 30.11821 | 31.42275 | 380 ft | 132 kts | 227° |
| 2026-05-04 12:10 | 30.11044 | 31.41293 | 415 ft | 192 kts | 229° |
| 2026-05-04 12:10 | 30.10088 | 31.40087 | 873 ft | 212 kts | 233° |
| 2026-05-04 12:11 | 30.09043 | 31.38845 | 1745 ft | 214 kts | 223° |
| 2026-05-04 12:11 | 30.07792 | 31.38050 | 2745 ft | 200 kts | 207° |
| 2026-05-04 12:11 | 30.06378 | 31.37941 | 3164 ft | 211 kts | 178° |
| 2026-05-04 12:11 | 30.04842 | 31.37945 | 3567 ft | 233 kts | 184° |
| 2026-05-04 12:12 | 30.03162 | 31.38293 | 3919 ft | 258 kts | 163° |
| 2026-05-04 12:12 | 30.01482 | 31.39245 | 4274 ft | 280 kts | 150° |
| 2026-05-04 12:12 | 29.99875 | 31.40560 | 4912 ft | 286 kts | 143° |
| 2026-05-04 12:12 | 29.98308 | 31.42005 | 5660 ft | 288 kts | 142° |
| 2026-05-04 12:13 | 29.96754 | 31.43461 | 6443 ft | 289 kts | 143° |
| 2026-05-04 12:14 | 29.84962 | 31.53964 | 10532 ft | 340 kts | 147° |
| 2026-05-04 12:15 | 29.83026 | 31.55665 | 10727 ft | 360 kts | 147° |
| 2026-05-04 12:15 | 29.81669 | 31.56860 | 10964 ft | 367 kts | 147° |
| 2026-05-04 12:15 | 29.79661 | 31.58635 | 11562 ft | 371 kts | 147° |
| 2026-05-04 12:15 | 29.77558 | 31.60494 | 12136 ft | 376 kts | 147° |
| 2026-05-04 12:16 | 29.75496 | 31.62316 | 12736 ft | 380 kts | 147° |
| 2026-05-04 12:16 | 29.73384 | 31.64177 | 13299 ft | 385 kts | 148° |
| 2026-05-04 12:16 | 29.71248 | 31.66057 | 13873 ft | 389 kts | 148° |
| 2026-05-04 12:16 | 29.69081 | 31.67961 | 14404 ft | 392 kts | 148° |
| 2026-05-04 12:17 | 29.66908 | 31.69871 | 14973 ft | 394 kts | 148° |
| 2026-05-04 12:17 | 29.64720 | 31.71791 | 15506 ft | 397 kts | 148° |
| 2026-05-04 12:17 | 29.62511 | 31.73731 | 16054 ft | 400 kts | 149° |
| 2026-05-04 12:17 | 29.60293 | 31.75677 | 16599 ft | 402 kts | 149° |
| 2026-05-04 12:18 | 29.58062 | 31.77633 | 17131 ft | 405 kts | 149° |
| 2026-05-04 12:18 | 29.55808 | 31.79607 | 17677 ft | 408 kts | 149° |
| 2026-05-04 12:18 | 29.53544 | 31.81589 | 18212 ft | 411 kts | 149° |
| 2026-05-04 12:18 | 29.51206 | 31.83635 | 18715 ft | 414 kts | 149° |
| 2026-05-04 12:19 | 29.48934 | 31.85622 | 19164 ft | 417 kts | 149° |
| 2026-05-04 12:19 | 29.46617 | 31.87647 | 19621 ft | 420 kts | 149° |
| 2026-05-04 12:19 | 29.44289 | 31.89681 | 20102 ft | 423 kts | 149° |
| 2026-05-04 12:19 | 29.41933 | 31.91738 | 20533 ft | 427 kts | 149° |
| 2026-05-04 12:20 | 29.39565 | 31.93803 | 20987 ft | 430 kts | 149° |
| 2026-05-04 12:20 | 29.37168 | 31.95893 | 21453 ft | 434 kts | 149° |
| 2026-05-04 12:20 | 29.34758 | 31.97993 | 21938 ft | 437 kts | 150° |
| 2026-05-04 12:20 | 29.32329 | 32.00110 | 22384 ft | 440 kts | 150° |
| 2026-05-04 12:21 | 29.29887 | 32.02231 | 22856 ft | 443 kts | 150° |
| 2026-05-04 12:21 | 29.27422 | 32.04376 | 23338 ft | 446 kts | 150° |
| 2026-05-04 12:21 | 29.24938 | 32.06537 | 23781 ft | 450 kts | 150° |
| 2026-05-04 12:21 | 29.22446 | 32.08704 | 24238 ft | 452 kts | 150° |
| 2026-05-04 12:22 | 29.19938 | 32.10883 | 24676 ft | 453 kts | 150° |
| 2026-05-04 12:22 | 29.17384 | 32.13100 | 25115 ft | 456 kts | 150° |
| 2026-05-04 12:22 | 29.14889 | 32.15262 | 25552 ft | 457 kts | 150° |
| 2026-05-04 12:22 | 29.12394 | 32.17422 | 25927 ft | 460 kts | 150° |
| 2026-05-04 12:23 | 29.09832 | 32.19637 | 26345 ft | 462 kts | 150° |
| 2026-05-04 12:23 | 29.07225 | 32.21891 | 26760 ft | 464 kts | 150° |
| 2026-05-04 12:23 | 29.04632 | 32.24132 | 27161 ft | 467 kts | 150° |
| 2026-05-04 12:23 | 29.02067 | 32.26349 | 27560 ft | 469 kts | 150° |
| 2026-05-04 12:24 | 28.99455 | 32.28604 | 27954 ft | 471 kts | 150° |
| 2026-05-04 12:24 | 28.96843 | 32.30860 | 28336 ft | 473 kts | 150° |
| 2026-05-04 12:24 | 28.94208 | 32.33132 | 28705 ft | 476 kts | 150° |
| 2026-05-04 12:24 | 28.91553 | 32.35421 | 29068 ft | 478 kts | 150° |
| 2026-05-04 12:25 | 28.88890 | 32.37716 | 29453 ft | 481 kts | 150° |
| 2026-05-04 12:25 | 28.86222 | 32.40013 | 29804 ft | 483 kts | 150° |
| 2026-05-04 12:25 | 28.83531 | 32.42330 | 30168 ft | 485 kts | 150° |
| 2026-05-04 12:25 | 28.80847 | 32.44641 | 30551 ft | 484 kts | 150° |
| 2026-05-04 12:26 | 28.78141 | 32.46964 | 30813 ft | 487 kts | 150° |
| 2026-05-04 12:26 | 28.75420 | 32.49297 | 31018 ft | 492 kts | 150° |
| 2026-05-04 12:26 | 28.72712 | 32.51620 | 31394 ft | 492 kts | 150° |
| 2026-05-04 12:26 | 28.69935 | 32.54004 | 31668 ft | 496 kts | 150° |
| 2026-05-04 12:27 | 28.67209 | 32.56340 | 32001 ft | 497 kts | 150° |
| 2026-05-04 12:27 | 28.64437 | 32.58714 | 32274 ft | 500 kts | 150° |
| 2026-05-04 12:27 | 28.61652 | 32.61099 | 32562 ft | 501 kts | 150° |
| 2026-05-04 12:27 | 28.58851 | 32.63495 | 32819 ft | 503 kts | 150° |
| 2026-05-04 12:28 | 28.56048 | 32.65891 | 33016 ft | 505 kts | 150° |
| 2026-05-04 12:28 | 28.53241 | 32.68288 | 33227 ft | 506 kts | 150° |
| 2026-05-04 12:28 | 28.50427 | 32.70690 | 33395 ft | 507 kts | 150° |
| 2026-05-04 12:28 | 28.47594 | 32.73107 | 33598 ft | 508 kts | 150° |
| 2026-05-04 12:29 | 28.44771 | 32.75514 | 33805 ft | 507 kts | 150° |
| 2026-05-04 12:29 | 28.41946 | 32.77922 | 34022 ft | 507 kts | 151° |
| 2026-05-04 12:29 | 28.39122 | 32.80327 | 34218 ft | 506 kts | 151° |
| 2026-05-04 12:29 | 28.38204 | 32.81108 | 34276 ft | 506 kts | 151° |
| 2026-05-04 12:30 | 28.34466 | 32.84287 | 34509 ft | 506 kts | 151° |
| 2026-05-04 12:31 | 28.31658 | 32.86673 | 34700 ft | 506 kts | 151° |
| 2026-05-04 12:31 | 28.28814 | 32.89088 | 34880 ft | 506 kts | 151° |
| 2026-05-04 12:31 | 28.26007 | 32.91470 | 35057 ft | 505 kts | 151° |
| 2026-05-04 12:31 | 28.23185 | 32.93863 | 35240 ft | 505 kts | 152° |
| 2026-05-04 12:32 | 28.20385 | 32.96235 | 35397 ft | 505 kts | 152° |
| 2026-05-04 12:32 | 28.14740 | 33.01014 | 35761 ft | 504 kts | 152° |
| 2026-05-04 12:32 | 28.11935 | 33.03386 | 35941 ft | 504 kts | 152° |
| 2026-05-04 12:33 | 28.09122 | 33.05763 | 36121 ft | 504 kts | 152° |
| 2026-05-04 12:33 | 28.06311 | 33.08138 | 36288 ft | 504 kts | 152° |
| 2026-05-04 12:33 | 28.03537 | 33.10481 | 36451 ft | 503 kts | 152° |
| 2026-05-04 12:33 | 28.00687 | 33.12878 | 36626 ft | 502 kts | 153° |
| 2026-05-04 12:34 | 27.97859 | 33.15190 | 36781 ft | 501 kts | 154° |
| 2026-05-04 12:34 | 27.95018 | 33.17481 | 36945 ft | 501 kts | 154° |
| 2026-05-04 12:34 | 27.92224 | 33.19732 | 37098 ft | 501 kts | 154° |
| 2026-05-04 12:34 | 27.89336 | 33.22066 | 37249 ft | 501 kts | 154° |
| 2026-05-04 12:35 | 27.86504 | 33.24357 | 37415 ft | 501 kts | 154° |
| 2026-05-04 12:35 | 27.83727 | 33.26608 | 37597 ft | 500 kts | 154° |
| 2026-05-04 12:35 | 27.80847 | 33.28940 | 37755 ft | 500 kts | 154° |
| 2026-05-04 12:35 | 27.78042 | 33.31210 | 37933 ft | 500 kts | 154° |
| 2026-05-04 12:36 | 27.75214 | 33.33498 | 38106 ft | 499 kts | 154° |
| 2026-05-04 12:36 | 27.72393 | 33.35779 | 38238 ft | 500 kts | 154° |
| 2026-05-04 12:36 | 27.69568 | 33.38061 | 38368 ft | 500 kts | 154° |
| 2026-05-04 12:36 | 27.66735 | 33.40349 | 38503 ft | 500 kts | 154° |
| 2026-05-04 12:37 | 27.63900 | 33.42636 | 38651 ft | 500 kts | 154° |
| 2026-05-04 12:37 | 27.61073 | 33.44916 | 38775 ft | 500 kts | 154° |
| 2026-05-04 12:37 | 27.58242 | 33.47198 | 38908 ft | 499 kts | 154° |
| 2026-05-04 12:38 | 27.52593 | 33.51747 | 38989 ft | 498 kts | 155° |
| 2026-05-04 12:38 | 27.46940 | 33.56291 | 38991 ft | 498 kts | 155° |
| 2026-05-04 12:39 | 27.41298 | 33.60817 | 38985 ft | 498 kts | 155° |
| 2026-05-04 12:39 | 27.35650 | 33.65344 | 38989 ft | 497 kts | 155° |
| 2026-05-04 12:40 | 27.29997 | 33.69869 | 38996 ft | 498 kts | 155° |
| 2026-05-04 12:40 | 27.24356 | 33.74380 | 38986 ft | 498 kts | 155° |
| 2026-05-04 12:41 | 27.19227 | 33.79391 | 38980 ft | 517 kts | 139° |
| 2026-05-04 12:41 | 27.17086 | 33.82622 | 38980 ft | 529 kts | 130° |
| 2026-05-04 12:41 | 27.15344 | 33.86303 | 38974 ft | 540 kts | 120° |
| 2026-05-04 12:42 | 27.12594 | 33.94206 | 38971 ft | 542 kts | 118° |
| 2026-05-04 12:42 | 27.09811 | 34.02076 | 38972 ft | 542 kts | 118° |
| 2026-05-04 12:43 | 27.07006 | 34.09933 | 38969 ft | 542 kts | 118° |
| 2026-05-04 12:43 | 27.04196 | 34.17788 | 38967 ft | 542 kts | 119° |
| 2026-05-04 12:44 | 27.01383 | 34.25638 | 38962 ft | 542 kts | 119° |
| 2026-05-04 12:44 | 26.98567 | 34.33478 | 38960 ft | 542 kts | 119° |
| 2026-05-04 12:45 | 26.95766 | 34.41259 | 38959 ft | 541 kts | 119° |
| 2026-05-04 12:45 | 26.92937 | 34.49102 | 38958 ft | 541 kts | 119° |
| 2026-05-04 12:46 | 26.90113 | 34.56914 | 38960 ft | 540 kts | 119° |
| 2026-05-04 12:46 | 26.87286 | 34.64718 | 38954 ft | 540 kts | 119° |
| 2026-05-04 12:47 | 26.84459 | 34.72508 | 38954 ft | 540 kts | 119° |
| 2026-05-04 12:47 | 26.81624 | 34.80303 | 38946 ft | 539 kts | 119° |
| 2026-05-04 12:48 | 26.78789 | 34.88084 | 38948 ft | 539 kts | 119° |
| 2026-05-04 12:48 | 26.75953 | 34.95854 | 38943 ft | 539 kts | 119° |
| 2026-05-04 12:49 | 26.73134 | 35.03567 | 38944 ft | 539 kts | 119° |
| 2026-05-04 12:49 | 26.70293 | 35.11326 | 38944 ft | 539 kts | 119° |
| 2026-05-04 12:50 | 26.67449 | 35.19081 | 38943 ft | 539 kts | 119° |
| 2026-05-04 12:50 | 26.64604 | 35.26820 | 38944 ft | 538 kts | 119° |
| 2026-05-04 12:51 | 26.61748 | 35.34574 | 38928 ft | 538 kts | 119° |
| 2026-05-04 12:51 | 26.59375 | 35.41005 | 38928 ft | 538 kts | 120° |
| 2026-05-04 12:52 | 26.56518 | 35.48733 | 38943 ft | 538 kts | 120° |
| 2026-05-04 12:52 | 26.53601 | 35.56429 | 38940 ft | 537 kts | 120° |
| 2026-05-04 12:53 | 26.50660 | 35.64088 | 38943 ft | 536 kts | 120° |
| 2026-05-04 12:53 | 26.47724 | 35.71750 | 38941 ft | 536 kts | 120° |
| 2026-05-04 12:54 | 26.44789 | 35.79406 | 38938 ft | 536 kts | 120° |
| 2026-05-04 12:54 | 26.41861 | 35.87031 | 38939 ft | 535 kts | 120° |
| 2026-05-04 12:55 | 26.38921 | 35.94672 | 38938 ft | 534 kts | 120° |
| 2026-05-04 12:55 | 26.35988 | 36.02279 | 38937 ft | 534 kts | 120° |
| 2026-05-04 12:56 | 26.33068 | 36.09841 | 38934 ft | 533 kts | 120° |
| 2026-05-04 12:56 | 26.30135 | 36.17420 | 38938 ft | 533 kts | 120° |
| 2026-05-04 12:57 | 26.27055 | 36.25365 | 38934 ft | 532 kts | 121° |
| 2026-05-04 12:57 | 26.24117 | 36.32929 | 38938 ft | 532 kts | 121° |
| 2026-05-04 12:58 | 26.21172 | 36.40497 | 38935 ft | 531 kts | 121° |
| 2026-05-04 12:58 | 26.18219 | 36.48047 | 38936 ft | 530 kts | 122° |
| 2026-05-04 12:59 | 26.14786 | 36.55227 | 38937 ft | 524 kts | 127° |
| 2026-05-04 12:59 | 26.11287 | 36.62335 | 38939 ft | 524 kts | 126° |
| 2026-05-04 13:00 | 26.07791 | 36.69459 | 38929 ft | 524 kts | 126° |
| 2026-05-04 13:00 | 26.04314 | 36.76531 | 38927 ft | 523 kts | 126° |
| 2026-05-04 13:01 | 26.00945 | 36.83367 | 38918 ft | 523 kts | 127° |
| 2026-05-04 13:01 | 25.97444 | 36.90457 | 38912 ft | 522 kts | 127° |
| 2026-05-04 13:02 | 25.93941 | 36.97541 | 38914 ft | 522 kts | 127° |
| 2026-05-04 13:02 | 25.90437 | 37.04617 | 38913 ft | 522 kts | 127° |
| 2026-05-04 13:03 | 25.86935 | 37.11677 | 38904 ft | 522 kts | 127° |
| 2026-05-04 13:03 | 25.83459 | 37.18672 | 38909 ft | 521 kts | 127° |
| 2026-05-04 13:04 | 25.79953 | 37.25717 | 38898 ft | 521 kts | 127° |
| 2026-05-04 13:04 | 25.76441 | 37.32763 | 38901 ft | 521 kts | 126° |
| 2026-05-04 13:05 | 25.72924 | 37.39808 | 38905 ft | 522 kts | 126° |
| 2026-05-04 13:05 | 25.69412 | 37.46834 | 38913 ft | 520 kts | 126° |
| 2026-05-04 13:06 | 25.65900 | 37.53849 | 38917 ft | 521 kts | 126° |
| 2026-05-04 13:06 | 25.62380 | 37.60868 | 38906 ft | 521 kts | 126° |
| 2026-05-04 13:07 | 25.58861 | 37.67878 | 38914 ft | 521 kts | 126° |
| 2026-05-04 13:07 | 25.55335 | 37.74887 | 38913 ft | 521 kts | 126° |
| 2026-05-04 13:08 | 25.51808 | 37.81887 | 38909 ft | 520 kts | 126° |
| 2026-05-04 13:08 | 25.48275 | 37.88888 | 38910 ft | 520 kts | 127° |
| 2026-05-04 13:09 | 25.44744 | 37.95875 | 38898 ft | 521 kts | 127° |
| 2026-05-04 13:09 | 25.41204 | 38.02869 | 38907 ft | 521 kts | 127° |
| 2026-05-04 13:10 | 25.37662 | 38.09856 | 38906 ft | 521 kts | 127° |
| 2026-05-04 13:10 | 25.34135 | 38.16807 | 38877 ft | 520 kts | 127° |
| 2026-05-04 13:11 | 25.30564 | 38.23828 | 38877 ft | 521 kts | 127° |
| 2026-05-04 13:11 | 25.27035 | 38.30758 | 38875 ft | 521 kts | 127° |
| 2026-05-04 13:12 | 25.23470 | 38.37751 | 38873 ft | 522 kts | 127° |
| 2026-05-04 13:12 | 25.19899 | 38.44739 | 38870 ft | 522 kts | 127° |
| 2026-05-04 13:13 | 25.16319 | 38.51742 | 38880 ft | 523 kts | 127° |
| 2026-05-04 13:13 | 25.13158 | 38.57916 | 38888 ft | 523 kts | 127° |
| 2026-05-04 13:14 | 25.09574 | 38.64904 | 38889 ft | 523 kts | 127° |
| 2026-05-04 13:14 | 25.06017 | 38.71826 | 38899 ft | 522 kts | 127° |
| 2026-05-04 13:15 | 25.02458 | 38.78749 | 38906 ft | 521 kts | 127° |
| 2026-05-04 13:15 | 24.98874 | 38.85705 | 38910 ft | 521 kts | 127° |
| 2026-05-04 13:16 | 24.95286 | 38.92654 | 38911 ft | 522 kts | 127° |
| 2026-05-04 13:16 | 24.91700 | 38.99597 | 38914 ft | 521 kts | 127° |
| 2026-05-04 13:17 | 24.88105 | 39.06543 | 38918 ft | 521 kts | 127° |
| 2026-05-04 13:17 | 24.84516 | 39.13466 | 38918 ft | 521 kts | 127° |
| 2026-05-04 13:18 | 24.80920 | 39.20396 | 38924 ft | 521 kts | 127° |
| 2026-05-04 13:18 | 24.77324 | 39.27314 | 38925 ft | 521 kts | 127° |
| 2026-05-04 13:19 | 24.73717 | 39.34242 | 38928 ft | 522 kts | 127° |
| 2026-05-04 13:19 | 24.70123 | 39.41140 | 38937 ft | 522 kts | 127° |
| 2026-05-04 13:20 | 24.67140 | 39.46858 | 38929 ft | 522 kts | 127° |
| 2026-05-04 13:20 | 24.63520 | 39.53781 | 38940 ft | 521 kts | 127° |
| 2026-05-04 13:21 | 24.59956 | 39.60589 | 38926 ft | 519 kts | 127° |
| 2026-05-04 13:21 | 24.56484 | 39.67692 | 38914 ft | 526 kts | 120° |
| 2026-05-04 13:22 | 24.54342 | 39.75445 | 38909 ft | 536 kts | 105° |
| 2026-05-04 13:22 | 24.53482 | 39.83661 | 38912 ft | 539 kts | 100° |
| 2026-05-04 13:23 | 24.52716 | 39.91838 | 38921 ft | 537 kts | 101° |
| 2026-05-04 13:23 | 24.51928 | 39.99979 | 38934 ft | 537 kts | 101° |
| 2026-05-04 13:24 | 24.51138 | 40.08084 | 38937 ft | 537 kts | 101° |
| 2026-05-04 13:24 | 24.50339 | 40.16235 | 38936 ft | 537 kts | 101° |
| 2026-05-04 13:25 | 24.49134 | 40.28464 | 38933 ft | 537 kts | 101° |
| 2026-05-04 13:25 | 24.48325 | 40.36612 | 38931 ft | 536 kts | 101° |
| 2026-05-04 13:26 | 24.47513 | 40.44744 | 38930 ft | 536 kts | 101° |
| 2026-05-04 13:26 | 24.46695 | 40.52889 | 38930 ft | 535 kts | 101° |
| 2026-05-04 13:27 | 24.45875 | 40.60986 | 38930 ft | 534 kts | 101° |
| 2026-05-04 13:27 | 24.45053 | 40.69089 | 38935 ft | 533 kts | 101° |
| 2026-05-04 13:28 | 24.44230 | 40.77156 | 38939 ft | 533 kts | 101° |
| 2026-05-04 13:28 | 24.43400 | 40.85251 | 38940 ft | 532 kts | 101° |
| 2026-05-04 13:29 | 24.42568 | 40.93315 | 38943 ft | 531 kts | 101° |
| 2026-05-04 13:29 | 24.41733 | 41.01372 | 38948 ft | 531 kts | 101° |
| 2026-05-04 13:30 | 24.40895 | 41.09410 | 38951 ft | 530 kts | 101° |
| 2026-05-04 13:30 | 24.40052 | 41.17462 | 38952 ft | 530 kts | 101° |
| 2026-05-04 13:31 | 24.39206 | 41.25498 | 38956 ft | 530 kts | 101° |
| 2026-05-04 13:31 | 24.38361 | 41.33475 | 38959 ft | 530 kts | 101° |
| 2026-05-04 13:32 | 24.37508 | 41.41498 | 38959 ft | 530 kts | 101° |
| 2026-05-04 13:32 | 24.36650 | 41.49521 | 38960 ft | 530 kts | 101° |
| 2026-05-04 13:33 | 24.35787 | 41.57552 | 38962 ft | 530 kts | 101° |
| 2026-05-04 13:33 | 24.34921 | 41.65573 | 38959 ft | 530 kts | 102° |
| 2026-05-04 13:34 | 24.34049 | 41.73610 | 38961 ft | 530 kts | 102° |
| 2026-05-04 13:34 | 24.33104 | 41.81619 | 38966 ft | 527 kts | 105° |
| 2026-05-04 13:35 | 24.30265 | 41.93150 | 38957 ft | 521 kts | 112° |
| 2026-05-04 13:36 | 24.28243 | 42.00835 | 38959 ft | 521 kts | 112° |
| 2026-05-04 13:36 | 24.26234 | 42.08472 | 38964 ft | 521 kts | 112° |
| 2026-05-04 13:37 | 24.24221 | 42.16096 | 38964 ft | 520 kts | 112° |
| 2026-05-04 13:37 | 24.22217 | 42.23661 | 38963 ft | 520 kts | 112° |
| 2026-05-04 13:38 | 24.20200 | 42.31262 | 38967 ft | 520 kts | 112° |
| 2026-05-04 13:38 | 24.18158 | 42.38938 | 38966 ft | 520 kts | 112° |
| 2026-05-04 13:39 | 24.16130 | 42.46549 | 38969 ft | 520 kts | 112° |
| 2026-05-04 13:39 | 24.14098 | 42.54155 | 38968 ft | 520 kts | 112° |
| 2026-05-04 13:40 | 24.12059 | 42.61772 | 38971 ft | 521 kts | 112° |
| 2026-05-04 13:40 | 24.10023 | 42.69360 | 38973 ft | 521 kts | 112° |
| 2026-05-04 13:41 | 24.07975 | 42.76979 | 38972 ft | 521 kts | 112° |
| 2026-05-04 13:41 | 24.05924 | 42.84590 | 38975 ft | 521 kts | 112° |
| 2026-05-04 13:42 | 24.02846 | 42.95982 | 38973 ft | 521 kts | 112° |
| 2026-05-04 13:42 | 24.00786 | 43.03586 | 38978 ft | 520 kts | 112° |
| 2026-05-04 13:43 | 23.98726 | 43.11174 | 38974 ft | 520 kts | 112° |
| 2026-05-04 13:43 | 23.96660 | 43.18768 | 38967 ft | 520 kts | 112° |
| 2026-05-04 13:44 | 23.94589 | 43.26363 | 38978 ft | 520 kts | 112° |
| 2026-05-04 13:44 | 23.92516 | 43.33952 | 38981 ft | 521 kts | 112° |
| 2026-05-04 13:45 | 23.90440 | 43.41535 | 38974 ft | 520 kts | 112° |
| 2026-05-04 13:45 | 23.88360 | 43.49115 | 38974 ft | 520 kts | 112° |
| 2026-05-04 13:46 | 23.86278 | 43.56687 | 38961 ft | 520 kts | 112° |
| 2026-05-04 13:46 | 23.84192 | 43.64257 | 38952 ft | 520 kts | 111° |
| 2026-05-04 13:47 | 23.82109 | 43.71804 | 38949 ft | 519 kts | 111° |
| 2026-05-04 13:47 | 23.80020 | 43.79354 | 38936 ft | 519 kts | 111° |
| 2026-05-04 13:48 | 23.77928 | 43.86906 | 38929 ft | 519 kts | 111° |
| 2026-05-04 13:48 | 23.75494 | 43.94268 | 38916 ft | 515 kts | 116° |
| 2026-05-04 13:49 | 23.72931 | 44.01586 | 38915 ft | 515 kts | 116° |
| 2026-05-04 13:49 | 23.70387 | 44.08884 | 38914 ft | 515 kts | 116° |
| 2026-05-04 13:50 | 23.67831 | 44.16195 | 38909 ft | 514 kts | 116° |
| 2026-05-04 13:50 | 23.65275 | 44.23488 | 38908 ft | 514 kts | 116° |
| 2026-05-04 13:51 | 23.63150 | 44.29538 | 38911 ft | 513 kts | 116° |
| 2026-05-04 13:51 | 23.60161 | 44.38032 | 38908 ft | 513 kts | 116° |
| 2026-05-04 13:52 | 23.56756 | 44.47685 | 38904 ft | 512 kts | 116° |
| 2026-05-04 13:53 | 23.54198 | 44.54925 | 38905 ft | 511 kts | 116° |
| 2026-05-04 13:53 | 23.51639 | 44.62151 | 38904 ft | 511 kts | 116° |
| 2026-05-04 13:54 | 23.47797 | 44.72984 | 38900 ft | 510 kts | 116° |
| 2026-05-04 13:55 | 23.43953 | 44.83792 | 38895 ft | 510 kts | 116° |
| 2026-05-04 13:55 | 23.40127 | 44.94524 | 38890 ft | 509 kts | 116° |
| 2026-05-04 13:56 | 23.37563 | 45.01700 | 38886 ft | 508 kts | 116° |
| 2026-05-04 13:57 | 23.33710 | 45.12463 | 38882 ft | 508 kts | 116° |
| 2026-05-04 13:58 | 23.28579 | 45.26752 | 38873 ft | 508 kts | 116° |
| 2026-05-04 13:58 | 23.24719 | 45.37473 | 38872 ft | 507 kts | 116° |
| 2026-05-04 13:59 | 23.22145 | 45.44606 | 38867 ft | 506 kts | 116° |
| 2026-05-04 14:00 | 23.18281 | 45.55293 | 38852 ft | 506 kts | 116° |
| 2026-05-04 14:00 | 23.15658 | 45.62531 | 38851 ft | 505 kts | 115° |
| 2026-05-04 14:01 | 23.13079 | 45.69640 | 38865 ft | 504 kts | 115° |
| 2026-05-04 14:02 | 23.09200 | 45.80307 | 38850 ft | 504 kts | 115° |
| 2026-05-04 14:02 | 23.06626 | 45.87372 | 38842 ft | 503 kts | 115° |
| 2026-05-04 14:03 | 23.04030 | 45.94484 | 38839 ft | 503 kts | 116° |
| 2026-05-04 14:03 | 23.01468 | 46.01494 | 38843 ft | 502 kts | 115° |
| 2026-05-04 14:04 | 22.97599 | 46.12057 | 38849 ft | 502 kts | 115° |
| 2026-05-04 14:04 | 22.95018 | 46.19090 | 38849 ft | 502 kts | 115° |
| 2026-05-04 14:05 | 22.91143 | 46.29633 | 38850 ft | 501 kts | 115° |
| 2026-05-04 14:06 | 22.88556 | 46.36649 | 38846 ft | 501 kts | 115° |
| 2026-05-04 14:06 | 22.85948 | 46.43719 | 38844 ft | 501 kts | 115° |
| 2026-05-04 14:07 | 22.83371 | 46.50694 | 38841 ft | 501 kts | 115° |
| 2026-05-04 14:07 | 22.80778 | 46.57698 | 38837 ft | 501 kts | 115° |
| 2026-05-04 14:08 | 22.78179 | 46.64709 | 38829 ft | 500 kts | 115° |
| 2026-05-04 14:08 | 22.75580 | 46.71709 | 38825 ft | 500 kts | 115° |
| 2026-05-04 14:09 | 22.71679 | 46.82194 | 38816 ft | 500 kts | 115° |
| 2026-05-04 14:10 | 22.67773 | 46.92668 | 38808 ft | 500 kts | 115° |
| 2026-05-04 14:10 | 22.65171 | 46.99631 | 38800 ft | 500 kts | 115° |
| 2026-05-04 14:11 | 22.62564 | 47.06598 | 38798 ft | 499 kts | 115° |
| 2026-05-04 14:11 | 22.58629 | 47.17094 | 38793 ft | 499 kts | 115° |
| 2026-05-04 14:12 | 22.56013 | 47.24057 | 38781 ft | 499 kts | 115° |
| 2026-05-04 14:13 | 22.52087 | 47.34488 | 38770 ft | 499 kts | 115° |
| 2026-05-04 14:13 | 22.49470 | 47.41430 | 38773 ft | 499 kts | 115° |
| 2026-05-04 14:14 | 22.46839 | 47.48396 | 38765 ft | 499 kts | 115° |
| 2026-05-04 14:14 | 22.42883 | 47.58852 | 38761 ft | 499 kts | 115° |
| 2026-05-04 14:15 | 22.37619 | 47.72729 | 38758 ft | 499 kts | 116° |
| 2026-05-04 14:16 | 22.33662 | 47.83133 | 38757 ft | 499 kts | 116° |
| 2026-05-04 14:17 | 22.29701 | 47.93523 | 38757 ft | 499 kts | 116° |
| 2026-05-04 14:18 | 22.25735 | 48.03905 | 38755 ft | 498 kts | 116° |
| 2026-05-04 14:19 | 22.20452 | 48.17697 | 38750 ft | 498 kts | 116° |
| 2026-05-04 14:19 | 22.17800 | 48.24606 | 38751 ft | 498 kts | 116° |
| 2026-05-04 14:20 | 22.15149 | 48.31506 | 38748 ft | 498 kts | 116° |
| 2026-05-04 14:20 | 22.12560 | 48.38434 | 38745 ft | 499 kts | 112° |
| 2026-05-04 14:21 | 22.10951 | 48.45752 | 38748 ft | 505 kts | 100° |
| 2026-05-04 14:21 | 22.10632 | 48.49531 | 38746 ft | 506 kts | 95° |
| 2026-05-04 14:21 | 22.10438 | 48.57133 | 38746 ft | 507 kts | 94° |
| 2026-05-04 14:22 | 22.10213 | 48.64736 | 38745 ft | 507 kts | 94° |
| 2026-05-04 14:22 | 22.10021 | 48.71106 | 38749 ft | 507 kts | 94° |
| 2026-05-04 14:23 | 22.09675 | 48.82522 | 38745 ft | 508 kts | 94° |
| 2026-05-04 14:24 | 22.09440 | 48.90135 | 38747 ft | 508 kts | 94° |
| 2026-05-04 14:24 | 22.09202 | 48.97710 | 38748 ft | 508 kts | 94° |
| 2026-05-04 14:25 | 22.08957 | 49.05316 | 38747 ft | 508 kts | 94° |
| 2026-05-04 14:25 | 22.08579 | 49.16803 | 38749 ft | 508 kts | 94° |
| 2026-05-04 14:26 | 22.08327 | 49.24355 | 38748 ft | 508 kts | 94° |
| 2026-05-04 14:26 | 22.08068 | 49.31991 | 38747 ft | 509 kts | 94° |
| 2026-05-04 14:27 | 22.07806 | 49.39611 | 38746 ft | 509 kts | 94° |
| 2026-05-04 14:27 | 22.07541 | 49.47230 | 38744 ft | 508 kts | 94° |
| 2026-05-04 14:28 | 22.07272 | 49.54849 | 38746 ft | 508 kts | 94° |
| 2026-05-04 14:28 | 22.07000 | 49.62477 | 38744 ft | 508 kts | 94° |
| 2026-05-04 14:29 | 22.06445 | 49.77711 | 38751 ft | 508 kts | 94° |
| 2026-05-04 14:30 | 22.06163 | 49.85317 | 38747 ft | 508 kts | 94° |
| 2026-05-04 14:31 | 22.05733 | 49.96727 | 38746 ft | 508 kts | 93° |
| 2026-05-04 14:32 | 22.05149 | 50.11923 | 38749 ft | 507 kts | 93° |
| 2026-05-04 14:32 | 22.04851 | 50.19530 | 38746 ft | 507 kts | 93° |
| 2026-05-04 14:33 | 22.04550 | 50.27123 | 38744 ft | 507 kts | 93° |
| 2026-05-04 14:33 | 22.04246 | 50.34713 | 38745 ft | 507 kts | 93° |
| 2026-05-04 14:34 | 22.03938 | 50.42305 | 38744 ft | 507 kts | 93° |
| 2026-05-04 14:34 | 22.03627 | 50.49899 | 38741 ft | 507 kts | 93° |
| 2026-05-04 14:35 | 22.03312 | 50.57500 | 38745 ft | 507 kts | 93° |
| 2026-05-04 14:35 | 22.02994 | 50.65084 | 38743 ft | 507 kts | 93° |
| 2026-05-04 14:36 | 22.02672 | 50.72676 | 38743 ft | 507 kts | 93° |
| 2026-05-04 14:36 | 22.02346 | 50.80280 | 38744 ft | 506 kts | 93° |
| 2026-05-04 14:37 | 22.02019 | 50.87854 | 38747 ft | 507 kts | 93° |
| 2026-05-04 14:37 | 22.01686 | 50.95447 | 38740 ft | 507 kts | 93° |
| 2026-05-04 14:38 | 22.01353 | 51.02981 | 38739 ft | 507 kts | 93° |
| 2026-05-04 14:38 | 22.01014 | 51.10562 | 38745 ft | 507 kts | 93° |
| 2026-05-04 14:39 | 22.00669 | 51.18203 | 38745 ft | 507 kts | 93° |
| 2026-05-04 14:39 | 22.00323 | 51.25791 | 38744 ft | 507 kts | 93° |
| 2026-05-04 14:40 | 21.99800 | 51.37134 | 38743 ft | 507 kts | 93° |
| 2026-05-04 14:40 | 21.99446 | 51.44712 | 38743 ft | 507 kts | 93° |
| 2026-05-04 14:41 | 21.99087 | 51.52307 | 38744 ft | 506 kts | 93° |
| 2026-05-04 14:42 | 21.98360 | 51.67474 | 38745 ft | 506 kts | 93° |
| 2026-05-04 14:42 | 21.97992 | 51.75044 | 38743 ft | 506 kts | 93° |
| 2026-05-04 14:43 | 21.97620 | 51.82632 | 38740 ft | 506 kts | 93° |
| 2026-05-04 14:43 | 21.97244 | 51.90210 | 38744 ft | 506 kts | 93° |
| 2026-05-04 14:44 | 21.96866 | 51.97781 | 38740 ft | 506 kts | 93° |
| 2026-05-04 14:44 | 21.96484 | 52.05348 | 38740 ft | 506 kts | 93° |
| 2026-05-04 14:45 | 21.96098 | 52.12932 | 38740 ft | 506 kts | 93° |
| 2026-05-04 14:45 | 21.95710 | 52.20499 | 38741 ft | 506 kts | 93° |
| 2026-05-04 14:46 | 21.95318 | 52.28056 | 38747 ft | 505 kts | 93° |
| 2026-05-04 14:46 | 21.94920 | 52.35665 | 38742 ft | 505 kts | 93° |
| 2026-05-04 14:47 | 21.94524 | 52.43175 | 38740 ft | 505 kts | 93° |
| 2026-05-04 14:47 | 21.94121 | 52.50737 | 38739 ft | 505 kts | 93° |
| 2026-05-04 14:48 | 21.93716 | 52.58283 | 38743 ft | 505 kts | 93° |
| 2026-05-04 14:48 | 21.93308 | 52.65827 | 38740 ft | 505 kts | 93° |
| 2026-05-04 14:49 | 21.92895 | 52.73378 | 38739 ft | 504 kts | 93° |
| 2026-05-04 14:49 | 21.92480 | 52.80929 | 38738 ft | 504 kts | 93° |
| 2026-05-04 14:50 | 21.92061 | 52.88470 | 38739 ft | 504 kts | 93° |
| 2026-05-04 14:50 | 21.91639 | 52.96006 | 38738 ft | 504 kts | 93° |
| 2026-05-04 14:51 | 21.91215 | 53.03536 | 38743 ft | 504 kts | 93° |
| 2026-05-04 14:51 | 21.90786 | 53.11073 | 38737 ft | 504 kts | 93° |
| 2026-05-04 14:52 | 21.90354 | 53.18601 | 38734 ft | 504 kts | 93° |
| 2026-05-04 14:52 | 21.89922 | 53.26084 | 38734 ft | 504 kts | 93° |
| 2026-05-04 14:53 | 21.89480 | 53.33657 | 38739 ft | 503 kts | 93° |
| 2026-05-04 14:53 | 21.89038 | 53.41181 | 38738 ft | 503 kts | 93° |
| 2026-05-04 14:54 | 21.88669 | 53.47432 | 38739 ft | 503 kts | 93° |
| 2026-05-04 14:54 | 21.88580 | 53.48922 | 38735 ft | 503 kts | 93° |